createdAt,value
2023-02-24T00:00:26.055Z,39.50
2023-02-24T00:02:57.126Z,54.75
2023-02-24T00:05:27.651Z,53.75
2023-02-24T00:07:59.886Z,61.25
2023-02-24T00:10:30.905Z,80.50
2023-02-24T00:13:01.482Z,84.00
2023-02-24T00:15:33.174Z,75.00
2023-02-24T00:18:04.031Z,83.50
2023-02-24T00:20:34.756Z,85.00
2023-02-24T00:23:05.186Z,69.50
2023-02-24T00:25:35.898Z,61.00
2023-02-24T00:28:06.412Z,53.75
2023-02-24T00:30:37.058Z,48.00
2023-02-24T00:33:07.895Z,50.00
2023-02-24T00:35:38.934Z,63.25
2023-02-24T00:38:09.933Z,57.50
2023-02-24T00:40:40.266Z,83.50
2023-02-24T00:43:12.808Z,70.25
2023-02-24T00:45:43.560Z,79.50
2023-02-24T00:48:14.602Z,79.00
2023-02-24T00:50:44.996Z,89.00
2023-02-24T00:53:15.305Z,76.25
2023-02-24T00:55:45.422Z,74.50
2023-02-24T00:58:15.667Z,91.25
2023-02-24T01:00:46.475Z,81.50
2023-02-24T01:03:18.316Z,71.75
2023-02-24T01:05:48.864Z,76.00
2023-02-24T01:08:20.892Z,72.00
2023-02-24T01:11:01.325Z,94.50
2023-02-24T01:13:31.984Z,60.50
2023-02-24T01:16:02.478Z,68.75
2023-02-24T01:18:34.548Z,71.25
2023-02-24T01:21:04.853Z,85.50
2023-02-24T01:23:35.853Z,82.50
2023-02-24T01:26:06.628Z,82.75
2023-02-24T01:28:37.670Z,66.75
2023-02-24T01:31:08.629Z,70.50
2023-02-24T01:33:39.590Z,80.50
2023-02-24T01:36:18.785Z,77.25
2023-02-24T01:38:49.779Z,60.50
2023-02-24T01:41:23.240Z,42.50
2023-02-24T01:44:20.029Z,34.50
2023-02-24T01:46:52.876Z,47.00
2023-02-24T01:49:38.130Z,71.00
2023-02-24T01:52:33.332Z,52.75
2023-02-24T01:55:30.404Z,43.50
2023-02-24T01:58:03.594Z,40.00
2023-02-24T02:00:35.012Z,59.00
2023-02-24T02:03:17.038Z,51.00
2023-02-24T02:05:47.664Z,35.25
2023-02-24T02:08:19.993Z,33.50
2023-02-24T02:10:51.605Z,29.50
2023-02-24T02:13:22.644Z,21.00
2023-02-24T02:16:09.018Z,20.50
2023-02-24T02:18:48.413Z,21.25
2023-02-24T02:30:17.652Z,24.25
2023-02-24T02:33:05.593Z,58.25
2023-02-24T02:35:44.213Z,32.75
2023-02-24T02:38:23.528Z,43.75
2023-02-24T02:40:57.041Z,43.75
2023-02-24T02:46:58.807Z,39.50
2023-02-24T02:49:40.870Z,36.25
2023-02-24T02:52:14.778Z,34.50
2023-02-24T02:54:52.183Z,31.50
2023-02-24T02:57:31.963Z,27.75
2023-02-24T03:00:08.079Z,25.00
2023-02-24T03:02:41.658Z,21.75
2023-02-24T03:05:33.860Z,17.25
2023-02-24T03:08:07.068Z,21.00
2023-02-24T03:10:40.019Z,17.25
2023-02-24T03:13:13.298Z,28.50
2023-02-24T03:15:47.658Z,16.50
2023-02-24T03:18:20.980Z,26.75
2023-02-24T03:20:54.837Z,29.75
2023-02-24T03:23:28.688Z,29.50
2023-02-24T03:26:02.019Z,36.50
2023-02-24T03:28:41.428Z,37.00
2023-02-24T03:31:17.450Z,49.50
2023-02-24T03:33:53.499Z,22.00
2023-02-24T03:36:23.817Z,30.25
2023-02-24T03:38:54.605Z,21.50
2023-02-24T03:41:27.780Z,13.50
2023-02-24T03:44:00.306Z,18.75
2023-02-24T03:46:32.231Z,28.75
2023-02-24T03:49:26.000Z,22.50
2023-02-24T03:52:23.102Z,50.00
2023-02-24T03:55:16.820Z,69.50
2023-02-24T04:01:52.640Z,70.00
2023-02-24T04:04:41.391Z,72.75
2023-02-24T04:10:14.098Z,81.25
2023-02-24T04:18:29.978Z,91.50
2023-02-24T04:21:03.662Z,94.00
2023-02-24T04:23:42.751Z,91.50
2023-02-24T04:26:16.286Z,71.25
2023-02-24T04:28:47.528Z,59.25
2023-02-24T04:31:21.005Z,49.75
2023-02-24T04:33:51.693Z,39.00
2023-02-24T04:36:23.088Z,26.50
2023-02-24T04:38:53.639Z,17.25
2023-02-24T04:41:24.206Z,24.50
2023-02-24T04:43:54.641Z,18.00
2023-02-24T04:46:24.938Z,7.50
2023-02-24T04:48:55.269Z,18.25
2023-02-24T04:51:25.703Z,19.50
2023-02-24T04:53:56.237Z,18.50
2023-02-24T04:56:26.690Z,27.00
2023-02-24T04:58:57.271Z,19.75
2023-02-24T05:01:28.293Z,21.00
2023-02-24T05:03:59.055Z,20.50
2023-02-24T05:06:29.947Z,24.25
2023-02-24T05:09:01.555Z,27.00
2023-02-24T05:11:31.869Z,23.50
2023-02-24T05:14:02.507Z,24.75
2023-02-24T05:16:58.402Z,26.00
2023-02-24T05:19:13.322Z,23.50
2023-02-24T05:21:43.813Z,22.00
2023-02-24T05:24:15.460Z,25.50
2023-02-24T05:26:46.806Z,16.50
2023-02-24T05:29:17.236Z,36.75
2023-02-24T05:31:48.192Z,53.00
2023-02-24T05:34:18.689Z,53.75
2023-02-24T05:36:49.060Z,42.50
2023-02-24T05:39:20.968Z,47.00
2023-02-24T05:41:51.861Z,30.50
2023-02-24T05:44:25.592Z,50.75
2023-02-24T05:46:58.808Z,24.75
2023-02-24T05:49:33.292Z,23.00
2023-02-24T05:52:06.508Z,39.50
2023-02-24T05:55:04.124Z,88.25
2023-02-24T05:57:34.666Z,25.00
2023-02-24T06:00:05.622Z,24.00
2023-02-24T06:02:40.816Z,39.00
2023-02-24T06:05:15.231Z,48.75
2023-02-24T06:07:45.705Z,70.50
2023-02-24T06:10:17.041Z,78.50
2023-02-24T06:12:48.384Z,76.50
2023-02-24T06:15:20.577Z,74.00
2023-02-24T06:18:00.920Z,94.50
2023-02-24T06:20:31.738Z,80.75
2023-02-24T06:23:02.214Z,84.75
2023-02-24T06:29:15.027Z,85.50
2023-02-24T06:31:45.958Z,98.75
2023-02-24T06:34:19.363Z,83.50
2023-02-24T06:54:07.375Z,71.50
2023-02-24T06:56:38.833Z,67.00
2023-02-24T06:59:18.204Z,68.25
2023-02-24T07:13:30.826Z,64.75
2023-02-24T07:16:08.615Z,70.00
2023-02-24T07:18:49.104Z,29.75
2023-02-24T07:21:22.317Z,66.75
2023-02-24T07:25:13.260Z,66.75
2023-02-24T07:30:11.748Z,56.75
2023-02-24T07:32:47.818Z,52.25
2023-02-24T07:35:18.185Z,56.75
2023-02-24T07:37:48.647Z,67.00
2023-02-24T07:40:19.758Z,41.75
2023-02-24T07:45:40.158Z,48.25
2023-02-24T07:48:12.614Z,43.00
2023-02-24T07:50:43.043Z,53.75
2023-02-24T07:53:14.910Z,32.75
2023-02-24T07:55:47.542Z,21.25
2023-02-24T07:58:18.453Z,14.50
2023-02-24T08:00:50.769Z,12.50
2023-02-24T08:03:24.362Z,12.75
2023-02-24T08:06:03.170Z,17.00
2023-02-24T08:08:39.126Z,27.00
2023-02-24T08:11:26.353Z,16.25
2023-02-24T08:14:00.923Z,22.75
2023-02-24T08:16:38.614Z,30.50
2023-02-24T08:19:13.966Z,16.75
2023-02-24T08:21:49.366Z,26.25
2023-02-24T08:24:25.406Z,14.75
2023-02-24T08:26:57.757Z,12.75
2023-02-24T08:29:38.461Z,7.00
2023-02-24T08:32:10.560Z,12.25
2023-02-24T08:34:44.837Z,13.25
2023-02-24T08:37:40.226Z,22.75
2023-02-24T08:40:11.801Z,26.00
2023-02-24T08:42:43.675Z,44.00
2023-02-24T08:45:14.089Z,26.50
2023-02-24T08:47:46.576Z,26.50
2023-02-24T08:50:17.670Z,19.00
2023-02-24T08:52:48.686Z,24.75
2023-02-24T08:55:19.289Z,24.50
2023-02-24T08:57:52.510Z,25.00
2023-02-24T09:00:22.941Z,33.25
2023-02-24T09:02:56.274Z,48.25
2023-02-24T09:05:29.735Z,31.50
2023-02-24T09:08:00.777Z,27.75
2023-02-24T09:10:32.496Z,30.25
2023-02-24T09:13:04.616Z,26.00
2023-02-24T09:15:35.179Z,38.75
2023-02-24T09:18:09.367Z,32.00
2023-02-24T09:20:43.271Z,31.00
2023-02-24T09:23:14.724Z,44.00
2023-02-24T09:25:48.591Z,25.00
2023-02-24T09:28:27.897Z,44.75
2023-02-24T09:31:19.941Z,25.75
2023-02-24T09:33:51.826Z,34.25
2023-02-24T09:36:23.271Z,30.25
2023-02-24T09:39:14.733Z,29.25
2023-02-24T09:41:53.344Z,20.75
2023-02-24T09:44:47.271Z,29.25
2023-02-24T09:47:38.504Z,33.25
2023-02-24T09:50:55.155Z,38.25
2023-02-24T09:53:06.323Z,22.75
2023-02-24T09:55:43.219Z,34.00
2023-02-24T09:58:34.761Z,21.75
2023-02-24T10:03:56.733Z,34.50
2023-02-24T10:06:39.040Z,33.25
2023-02-24T10:09:32.143Z,28.00
2023-02-24T10:18:44.039Z,27.50
2023-02-24T10:21:36.896Z,28.25
2023-02-24T10:24:34.972Z,28.00
2023-02-24T10:30:30.502Z,31.00
2023-02-24T10:33:04.204Z,23.75
2023-02-24T10:35:36.218Z,30.25
2023-02-24T10:38:06.691Z,20.50
2023-02-24T10:40:50.550Z,28.50
2023-02-24T10:43:31.614Z,27.00
2023-02-24T10:46:03.908Z,12.75
2023-02-24T10:48:55.545Z,19.50
2023-02-24T10:51:37.311Z,27.25
2023-02-24T10:54:18.581Z,19.00
2023-02-24T10:57:06.425Z,12.25
2023-02-24T11:02:31.076Z,36.50
2023-02-24T11:05:10.262Z,51.25
2023-02-24T11:07:40.631Z,39.25
2023-02-24T11:10:14.170Z,8.50
2023-02-24T11:12:50.269Z,20.00
2023-02-24T11:15:45.128Z,23.50
2023-02-24T11:18:21.624Z,25.25
2023-02-24T11:21:13.934Z,31.50
2023-02-24T11:23:59.705Z,29.25
2023-02-24T11:26:39.737Z,21.75
2023-02-24T11:29:43.089Z,32.75
2023-02-24T11:32:40.920Z,18.75
2023-02-24T11:35:16.968Z,35.00
2023-02-24T11:37:56.074Z,19.50
2023-02-24T11:40:29.470Z,32.00
2023-02-24T11:43:11.682Z,33.50
2023-02-24T11:45:48.316Z,27.25
2023-02-24T11:48:39.730Z,34.75
2023-02-24T11:51:22.437Z,35.00
2023-02-24T11:56:59.762Z,40.75
2023-02-24T11:59:39.813Z,42.25
2023-02-24T12:02:19.704Z,33.50
2023-02-24T12:04:57.572Z,48.50
2023-02-24T12:07:34.109Z,38.00
2023-02-24T12:10:26.702Z,53.75
2023-02-24T12:13:18.309Z,22.25
2023-02-24T12:24:15.765Z,17.75
2023-02-24T12:26:58.335Z,17.00
2023-02-24T12:29:41.106Z,14.75
2023-02-24T12:36:00.110Z,15.75
2023-02-24T12:38:42.413Z,22.25
2023-02-24T12:41:15.957Z,27.25
2023-02-24T12:44:21.671Z,17.25
2023-02-24T12:46:55.223Z,21.75
2023-02-24T12:49:28.535Z,25.00
2023-02-24T12:52:22.418Z,14.00
2023-02-24T12:55:28.265Z,17.25
2023-02-24T12:58:18.449Z,27.75
2023-02-24T13:06:45.434Z,21.00
2023-02-24T13:12:40.251Z,85.75
2023-02-24T13:15:24.729Z,35.50
2023-02-24T13:18:19.632Z,31.00
2023-02-24T13:20:51.433Z,17.25
2023-02-24T13:23:24.095Z,17.25
2023-02-24T13:25:56.677Z,23.25
2023-02-24T13:28:33.489Z,9.00
2023-02-24T13:31:07.448Z,22.50
2023-02-24T13:33:43.519Z,23.25
2023-02-24T13:36:22.064Z,20.00
2023-02-24T13:39:10.801Z,34.00
2023-02-24T13:42:33.716Z,24.25
2023-02-24T13:44:36.090Z,19.25
2023-02-24T13:47:45.468Z,40.00
2023-02-24T13:50:35.319Z,24.25
2023-02-24T13:53:20.967Z,18.25
2023-02-24T13:56:10.703Z,32.50
2023-02-24T14:05:42.757Z,55.00
2023-02-24T14:08:19.547Z,49.50
2023-02-24T14:11:12.195Z,48.00
2023-02-24T14:13:51.298Z,59.00
2023-02-24T14:19:27.092Z,34.50
2023-02-24T14:22:05.309Z,19.50
2023-02-24T14:24:36.744Z,32.50
2023-02-24T14:27:11.560Z,16.50
2023-02-24T14:29:44.379Z,32.25
2023-02-24T14:32:24.895Z,33.75
2023-02-24T14:34:56.204Z,28.25
2023-02-24T14:37:31.172Z,28.75
2023-02-24T14:40:02.316Z,18.50
2023-02-24T14:42:34.830Z,17.75
2023-02-24T14:45:19.742Z,34.25
2023-02-24T14:47:50.299Z,41.50
2023-02-24T14:50:24.093Z,42.25
2023-02-24T14:53:16.369Z,59.25
2023-02-24T14:55:51.827Z,49.50
2023-02-24T14:58:42.064Z,56.75
2023-02-24T15:01:24.246Z,61.00
2023-02-24T15:03:57.555Z,49.00
2023-02-24T15:06:52.781Z,37.75
2023-02-24T15:09:31.863Z,37.25
2023-02-24T15:12:08.498Z,42.20
2023-02-24T15:14:46.158Z,47.60
2023-02-24T15:17:19.693Z,37.50
2023-02-24T15:19:53.873Z,42.25
2023-02-24T15:22:29.969Z,34.75
2023-02-24T15:25:42.302Z,46.75
2023-02-24T15:28:06.094Z,35.00
2023-02-24T15:30:42.397Z,32.25
2023-02-24T15:33:21.901Z,39.25
2023-02-24T15:36:06.878Z,51.00
2023-02-24T15:38:41.019Z,60.75
2023-02-24T15:41:16.287Z,69.75
2023-02-24T15:44:10.221Z,66.60
2023-02-24T15:46:42.972Z,35.20
2023-02-24T15:49:15.728Z,61.40
2023-02-24T15:51:49.354Z,33.00
2023-02-24T15:54:22.197Z,49.40
2023-02-24T15:56:53.068Z,33.20
2023-02-24T15:59:37.470Z,55.60
2023-02-24T16:02:16.792Z,70.25
2023-02-24T16:10:49.327Z,62.00
2023-02-24T16:20:21.003Z,32.75
2023-02-24T16:23:10.784Z,44.20
2023-02-24T16:31:28.815Z,97.00
2023-02-24T16:34:23.824Z,103.50
2023-02-24T16:37:14.944Z,110.25
2023-02-24T16:39:50.097Z,106.50
2023-02-24T16:45:45.079Z,104.00
2023-02-24T16:48:25.734Z,102.75
2023-02-24T16:50:59.343Z,98.75
2023-02-24T16:53:33.000Z,92.25
2023-02-24T16:56:05.419Z,94.75
2023-02-24T16:58:41.729Z,69.50
2023-02-24T17:01:33.207Z,63.75
2023-02-24T17:04:11.888Z,42.25
2023-02-24T17:06:45.396Z,43.25
2023-02-24T17:09:16.047Z,39.25
2023-02-24T17:11:49.981Z,53.25
2023-02-24T17:14:21.696Z,64.75
2023-02-24T17:16:52.810Z,53.50
2023-02-24T17:19:23.508Z,42.50
2023-02-24T17:21:54.475Z,62.50
2023-02-24T17:24:27.694Z,66.25
2023-02-24T17:26:58.703Z,77.75
2023-02-24T17:29:29.120Z,76.00
2023-02-24T17:31:59.702Z,71.25
2023-02-24T17:34:31.199Z,65.75
2023-02-24T17:37:01.880Z,64.75
2023-02-24T17:39:32.326Z,51.50
2023-02-24T17:42:02.698Z,61.75
2023-02-24T17:44:33.412Z,40.00
2023-02-24T17:47:06.134Z,67.50
2023-02-24T17:49:37.454Z,54.50
2023-02-24T17:52:09.677Z,47.75
2023-02-24T17:54:42.758Z,43.50
2023-02-24T17:57:13.736Z,25.50
2023-02-24T17:59:45.588Z,19.25
2023-02-24T18:02:37.456Z,18.50
2023-02-24T18:05:08.938Z,18.00
2023-02-24T18:07:41.515Z,15.75
2023-02-24T18:10:13.216Z,13.50
2023-02-24T18:12:43.851Z,9.00
2023-02-24T18:15:17.857Z,15.50
2023-02-24T18:17:48.515Z,13.00
2023-02-24T18:20:27.160Z,26.25
2023-02-24T18:22:57.643Z,19.00
2023-02-24T18:25:31.011Z,26.50
2023-02-24T18:28:01.512Z,22.75
2023-02-24T18:30:34.408Z,22.50
2023-02-24T18:33:08.324Z,17.25
2023-02-24T18:35:41.919Z,21.00
2023-02-24T18:38:21.330Z,20.25
2023-02-24T18:41:03.655Z,12.75
2023-02-24T18:43:41.044Z,19.50
2023-02-24T18:46:11.206Z,13.00
2023-02-24T18:48:44.320Z,13.00
2023-02-24T18:51:18.012Z,25.50
2023-02-24T18:53:57.003Z,18.75
2023-02-24T18:56:29.912Z,18.50
2023-02-24T18:59:03.561Z,22.00
2023-02-24T19:01:45.702Z,17.00
2023-02-24T19:04:38.127Z,19.75
2023-02-24T19:07:16.049Z,17.75
2023-02-24T19:09:59.021Z,19.75
2023-02-24T19:12:29.379Z,12.50
2023-02-24T19:15:01.860Z,22.00
2023-02-24T19:17:32.818Z,19.00
2023-02-24T19:20:05.324Z,17.25
2023-02-24T19:22:36.131Z,14.50
2023-02-24T19:25:07.211Z,17.25
2023-02-24T19:27:39.161Z,10.25
2023-02-24T19:30:11.561Z,15.75
2023-02-24T19:32:43.162Z,19.00
2023-02-24T19:35:14.606Z,20.50
2023-02-24T19:37:53.224Z,15.50
2023-02-24T19:40:24.715Z,22.25
2023-02-24T19:42:58.614Z,19.00
2023-02-24T19:45:29.561Z,18.50
2023-02-24T19:50:55.640Z,31.00
2023-02-24T19:53:26.130Z,19.25
2023-02-24T19:56:00.293Z,25.75
2023-02-24T19:58:33.626Z,14.50
2023-02-24T20:04:05.326Z,21.00
2023-02-24T20:09:43.526Z,23.25
2023-02-24T20:15:14.629Z,27.00
2023-02-24T20:17:45.693Z,20.25
2023-02-24T20:20:20.215Z,24.00
2023-02-24T20:23:00.938Z,22.25
2023-02-24T20:25:31.634Z,23.25
2023-02-24T20:28:02.991Z,22.25
2023-02-24T20:30:33.520Z,21.25
2023-02-24T20:33:04.054Z,17.25
2023-02-24T20:35:37.997Z,27.75
2023-02-24T20:38:09.102Z,24.75
2023-02-24T20:41:10.278Z,33.00
2023-02-24T20:43:41.787Z,40.50
2023-02-24T20:46:25.008Z,30.50
2023-02-24T20:49:34.361Z,16.75
2023-02-24T20:52:04.822Z,22.25
2023-02-24T20:54:35.504Z,32.50
2023-02-24T20:57:07.311Z,10.75
2023-02-24T20:59:38.946Z,15.25
2023-02-24T21:02:40.130Z,17.00
2023-02-24T21:05:18.980Z,25.50
2023-02-24T21:07:50.345Z,23.00
2023-02-24T21:10:22.132Z,12.50
2023-02-24T21:12:53.844Z,23.00
2023-02-24T21:15:24.222Z,20.00
2023-02-24T21:17:55.323Z,22.75
2023-02-24T21:20:28.933Z,24.00
2023-02-24T21:22:59.764Z,21.00
2023-02-24T21:25:30.347Z,21.75
2023-02-24T21:28:00.920Z,14.00
2023-02-24T21:30:32.062Z,19.50
2023-02-24T21:33:08.818Z,18.00
2023-02-24T21:35:39.160Z,23.00
2023-02-24T21:38:10.611Z,16.50
2023-02-24T21:40:41.590Z,21.00
2023-02-24T21:43:15.571Z,17.00
2023-02-24T21:45:45.768Z,16.50
2023-02-24T21:48:18.660Z,18.75
2023-02-24T21:50:59.803Z,15.00
2023-02-24T21:53:32.165Z,24.50
2023-02-24T21:56:08.762Z,17.75
2023-02-24T21:58:40.916Z,22.00
2023-02-24T22:01:17.020Z,12.25
2023-02-24T22:03:49.111Z,20.50
2023-02-24T22:06:21.724Z,19.50
2023-02-24T22:08:59.514Z,24.75
2023-02-24T22:11:33.237Z,22.00
2023-02-24T22:14:24.569Z,17.25
2023-02-24T22:16:57.374Z,35.50
2023-02-24T22:19:29.018Z,30.00
2023-02-24T22:22:00.108Z,18.00
2023-02-24T22:24:30.543Z,12.00
2023-02-24T22:27:03.924Z,25.75
2023-02-24T22:29:34.653Z,23.00
2023-02-24T22:32:05.345Z,15.00
2023-02-24T22:34:36.880Z,21.50
2023-02-24T22:37:07.809Z,19.00
2023-02-24T22:39:54.700Z,18.25
2023-02-24T22:42:28.775Z,25.00
2023-02-24T22:44:59.219Z,17.75
2023-02-24T22:47:30.179Z,18.00
2023-02-24T22:50:00.722Z,11.50
2023-02-24T22:52:32.165Z,31.00
2023-02-24T22:55:04.440Z,23.75
2023-02-24T22:57:35.733Z,22.25
2023-02-24T23:00:10.785Z,25.00
2023-02-24T23:02:43.340Z,58.50
2023-02-24T23:05:14.638Z,44.25
2023-02-24T23:07:45.691Z,32.50
2023-02-24T23:10:19.544Z,23.50
2023-02-24T23:12:53.552Z,30.50
2023-02-24T23:15:24.838Z,26.50
2023-02-24T23:17:57.518Z,32.00
2023-02-24T23:20:28.114Z,20.25
2023-02-24T23:22:58.555Z,26.50
2023-02-24T23:25:29.139Z,25.25
2023-02-24T23:27:59.686Z,13.25
2023-02-24T23:30:32.043Z,24.75
2023-02-24T23:33:02.512Z,26.00
2023-02-24T23:35:35.058Z,26.00
2023-02-24T23:38:05.647Z,30.00
2023-02-24T23:40:49.972Z,41.50
2023-02-24T23:43:16.480Z,33.00
2023-02-24T23:45:53.679Z,26.75
2023-02-24T23:48:31.154Z,32.00
2023-02-24T23:51:24.977Z,31.25
2023-02-24T23:53:55.812Z,31.75
2023-02-24T23:56:28.059Z,28.00
2023-02-24T23:59:00.325Z,17.25
